This is the latest recevied weather packets stored in our database for station/object N2GWK. If no packets are shown the sender has not sent any weather packets the latest 10 day(s).
| Time | Temp. | Humidity | Pressure | Rain* | Wind** | Luminosity | Snow |
|---|---|---|---|---|---|---|---|
| 1777956324 | 18.33° C | 68% | 1009.6 hPa | 0 mm | - | - | - |
| 1777953919 | 19.44° C | 65% | 1009.6 hPa | 0 mm | - | - | - |
| 1777953354 | 19.44° C | 65% | 1009.6 hPa | 0 mm | - | - | - |
| 1777944328 | 21.67° C | 57% | 1007.1 hPa | 0 mm | - | - | - |
| 1777943117 | 22.22° C | 57% | 1007.3 hPa | 0 mm | - | - | - |
| 1777940122 | 23.33° C | 55% | 1007.6 hPa | 0 mm | - | - | - |
| 1777939525 | 23.33° C | 55% | 1007.6 hPa | 0 mm | - | - | - |
| 1777936534 | 25.56° C | 54% | 1008.5 hPa | 0 mm | - | - | - |
| 1777932319 | 28.33° C | 49% | 1008.8 hPa | 0 mm | - | - | - |
| 1777931121 | 26.67° C | 51% | 1008.8 hPa | 0 mm | - | - | - |
| 1777929327 | 25.56° C | 53% | 1009.1 hPa | 0 mm | - | - | - |
| 1777927537 | 27.22° C | 54% | 1009.2 hPa | 0 mm | - | - | - |
| 1777926920 | 26.11° C | 52% | 1009.2 hPa | 0 mm | - | - | - |
| 1777923319 | 27.22° C | 53% | 1010.1 hPa | 0 mm | - | - | - |
| 1777921525 | 26.67° C | 55% | 1010.6 hPa | 0 mm | - | - | - |
| 1777920917 | 26.11° C | 55% | 1010.8 hPa | 0 mm | - | - | - |
| 1777918530 | 25.56° C | 58% | 1010.9 hPa | 0 mm | - | - | - |
| 1777916144 | 25° C | 60% | 1010.8 hPa | 0 mm | - | - | - |
| 1777915527 | 24.44° C | 60% | 1010.8 hPa | 0 mm | - | - | - |
| 1777912538 | 23.33° C | 62% | 1011.3 hPa | 0 mm | - | - | - |
| 1777911324 | 22.78° C | 64% | 1011.5 hPa | 0 mm | - | - | - |
| 1777908333 | 20° C | 67% | 1012.1 hPa | 0 mm | - | - | - |
| 1777906519 | 18.33° C | 72% | 1012.3 hPa | 0 mm | - | - | - |
| 1777904141 | 17.22° C | 73% | 1012.2 hPa | 0 mm | - | - | - |
| 1777902337 | 15.56° C | 76% | 1012.7 hPa | 0 mm | - | - | - |
* Rain latest hour (hover to see other rain measurements)
** Current wind speed in m/s (hover to see current wind gust speed)